createdAt,value
2023-01-29T00:00:33.906Z,81.03
2023-01-29T00:03:00.556Z,81.81
2023-01-29T00:05:28.465Z,81.89
2023-01-29T00:07:56.840Z,81.35
2023-01-29T00:10:25.276Z,81.45
2023-01-29T00:12:52.012Z,81.30
2023-01-29T00:15:18.765Z,81.11
2023-01-29T00:17:45.328Z,82.66
2023-01-29T00:20:12.678Z,81.80
2023-01-29T00:22:39.269Z,82.10
2023-01-29T00:25:06.364Z,82.03
2023-01-29T00:27:32.998Z,81.85
2023-01-29T00:30:12.037Z,81.66
2023-01-29T00:32:41.224Z,82.75
2023-01-29T00:35:09.193Z,82.26
2023-01-29T00:37:35.933Z,82.78
2023-01-29T00:40:02.730Z,82.33
2023-01-29T00:42:52.156Z,82.50
2023-01-29T00:45:18.782Z,81.79
2023-01-29T00:47:45.502Z,82.49
2023-01-29T00:50:13.352Z,81.17
2023-01-29T00:52:43.443Z,81.15
2023-01-29T00:55:10.857Z,81.47
2023-01-29T00:57:38.475Z,82.57
2023-01-29T01:00:08.344Z,82.58
2023-01-29T01:02:54.049Z,82.48
2023-01-29T01:05:24.103Z,82.58
2023-01-29T01:07:57.212Z,82.57
2023-01-29T01:16:40.656Z,82.17
2023-01-29T01:19:55.708Z,82.08
2023-01-29T01:22:38.661Z,81.52
2023-01-29T01:25:09.859Z,81.94
2023-01-29T01:27:40.930Z,82.28
2023-01-29T01:30:13.526Z,82.18
2023-01-29T01:32:40.964Z,81.88
2023-01-29T01:35:09.131Z,82.67
2023-01-29T01:37:39.937Z,82.44
2023-01-29T01:40:12.979Z,81.52
2023-01-29T01:42:40.196Z,81.96
2023-01-29T01:45:18.097Z,81.92
2023-01-29T01:47:50.220Z,82.71
2023-01-29T01:50:25.395Z,81.59
2023-01-29T01:52:55.729Z,81.65
2023-01-29T01:55:26.735Z,82.63
2023-01-29T01:57:58.200Z,81.88
2023-01-29T02:00:26.725Z,82.41
2023-01-29T02:03:12.961Z,83.68
2023-01-29T02:05:58.786Z,83.66
2023-01-29T02:09:08.571Z,83.03
2023-01-29T02:11:36.723Z,84.00
2023-01-29T02:14:03.609Z,83.28
2023-01-29T02:16:30.408Z,83.54
2023-01-29T02:18:57.195Z,82.94
2023-01-29T02:21:57.460Z,83.42
2023-01-29T02:24:50.539Z,83.46
2023-01-29T02:27:25.474Z,82.90
2023-01-29T02:30:01.557Z,83.05
2023-01-29T02:32:42.396Z,83.10
2023-01-29T02:35:30.782Z,83.83
2023-01-29T02:38:12.983Z,83.65
2023-01-29T02:40:51.652Z,83.15
2023-01-29T02:43:47.787Z,83.27
2023-01-29T02:46:32.596Z,83.95
2023-01-29T02:49:05.787Z,83.26
2023-01-29T02:51:36.684Z,83.89
2023-01-29T02:54:04.796Z,84.95
2023-01-29T02:56:39.561Z,84.16
2023-01-29T02:59:10.651Z,84.14
2023-01-29T03:01:44.098Z,84.18
2023-01-29T03:04:14.449Z,83.59
2023-01-29T03:06:49.784Z,84.40
2023-01-29T03:09:26.984Z,84.94
2023-01-29T03:11:58.714Z,84.29
2023-01-29T03:14:56.555Z,84.24
2023-01-29T03:17:27.180Z,83.98
2023-01-29T03:19:54.290Z,84.58
2023-01-29T03:22:23.296Z,84.04
2023-01-29T03:25:15.659Z,84.94
2023-01-29T03:28:04.807Z,84.04
2023-01-29T03:31:00.739Z,84.30
2023-01-29T03:34:07.985Z,84.87
2023-01-29T03:36:45.188Z,83.81
2023-01-29T03:39:14.167Z,83.83
2023-01-29T03:41:50.479Z,84.67
2023-01-29T03:44:34.258Z,84.66
2023-01-29T03:47:26.193Z,85.15
2023-01-29T03:50:03.253Z,84.92
2023-01-29T03:53:02.432Z,84.71
2023-01-29T03:55:32.549Z,83.89
2023-01-29T03:58:23.140Z,85.64
2023-01-29T04:00:56.293Z,84.44
2023-01-29T04:03:48.342Z,84.39
2023-01-29T04:06:22.424Z,85.00
2023-01-29T04:09:30.367Z,84.28
2023-01-29T04:12:09.220Z,85.00
2023-01-29T04:14:39.285Z,85.19
2023-01-29T04:17:16.513Z,84.32
2023-01-29T04:19:54.215Z,85.59
2023-01-29T04:22:25.553Z,84.71
2023-01-29T04:24:53.278Z,85.07
2023-01-29T04:27:35.513Z,84.35
2023-01-29T04:30:14.514Z,84.27
2023-01-29T04:33:14.917Z,85.99
2023-01-29T04:35:54.375Z,84.82
2023-01-29T04:38:44.997Z,85.93
2023-01-29T04:41:19.951Z,85.26
2023-01-29T04:44:11.066Z,84.98
2023-01-29T04:47:01.770Z,84.31
2023-01-29T04:49:37.985Z,85.01
2023-01-29T04:52:22.913Z,85.45
2023-01-29T04:55:10.268Z,85.20
2023-01-29T04:58:08.232Z,84.58
2023-01-29T05:00:41.721Z,84.96
2023-01-29T05:03:35.076Z,85.41
2023-01-29T05:06:02.640Z,84.97
2023-01-29T05:08:30.957Z,85.28
2023-01-29T05:10:59.191Z,84.88
2023-01-29T05:13:27.135Z,84.08
2023-01-29T05:16:04.199Z,84.57
2023-01-29T05:18:31.609Z,83.95
2023-01-29T05:22:25.434Z,84.97
2023-01-29T05:24:37.808Z,85.33
2023-01-29T05:27:23.647Z,84.20
2023-01-29T05:29:50.341Z,84.28
2023-01-29T05:32:18.860Z,84.28
2023-01-29T05:34:51.345Z,84.28
2023-01-29T05:37:18.014Z,85.18
2023-01-29T05:39:44.637Z,85.16
2023-01-29T05:42:11.355Z,84.94
2023-01-29T05:44:38.051Z,83.83
2023-01-29T05:47:04.779Z,84.73
2023-01-29T05:49:31.589Z,84.74
2023-01-29T05:52:01.309Z,85.21
2023-01-29T05:54:30.616Z,85.35
2023-01-29T05:56:57.406Z,85.18
2023-01-29T05:59:24.294Z,85.29
2023-01-29T06:01:51.068Z,84.90
2023-01-29T06:04:18.714Z,84.04
2023-01-29T06:06:45.656Z,84.78
2023-01-29T06:09:12.458Z,84.74
2023-01-29T06:11:39.488Z,85.52
2023-01-29T06:14:06.218Z,84.24
2023-01-29T06:16:32.989Z,85.02
2023-01-29T06:18:59.744Z,84.33
2023-01-29T06:21:26.397Z,84.61
2023-01-29T06:23:53.854Z,85.04
2023-01-29T06:26:21.180Z,84.93
2023-01-29T06:28:51.545Z,84.71
2023-01-29T06:31:38.239Z,84.92
2023-01-29T06:34:05.707Z,84.47
2023-01-29T06:36:32.714Z,84.08
2023-01-29T06:38:59.595Z,84.50
2023-01-29T06:41:26.396Z,84.67
2023-01-29T06:43:55.857Z,84.69
2023-01-29T06:46:22.623Z,83.96
2023-01-29T06:48:49.340Z,84.99
2023-01-29T06:51:16.045Z,85.24
2023-01-29T06:53:44.732Z,84.15
2023-01-29T06:56:12.679Z,84.80
2023-01-29T06:58:39.386Z,84.82
2023-01-29T07:01:11.131Z,84.19
2023-01-29T07:03:41.530Z,84.21
2023-01-29T07:06:08.298Z,85.27
2023-01-29T07:08:39.158Z,83.93
2023-01-29T07:11:06.987Z,84.27
2023-01-29T07:13:33.820Z,84.43
2023-01-29T07:16:01.728Z,84.89
2023-01-29T07:18:29.214Z,84.31
2023-01-29T07:20:56.637Z,85.41
2023-01-29T07:23:23.605Z,84.00
2023-01-29T07:25:50.911Z,84.70
2023-01-29T07:28:18.318Z,83.77
2023-01-29T07:30:45.031Z,83.98
2023-01-29T07:33:12.694Z,84.23
2023-01-29T07:35:41.370Z,84.55
2023-01-29T07:38:11.831Z,84.22
2023-01-29T07:40:41.906Z,84.60
2023-01-29T07:43:12.234Z,83.85
2023-01-29T07:45:42.649Z,84.30
2023-01-29T07:48:14.812Z,84.76
2023-01-29T07:50:45.145Z,83.69
2023-01-29T07:53:15.138Z,83.78
2023-01-29T07:55:44.708Z,84.34
2023-01-29T07:58:11.861Z,83.78
2023-01-29T08:00:39.067Z,83.57
2023-01-29T08:03:07.870Z,84.27
2023-01-29T08:05:47.762Z,84.21
2023-01-29T08:08:15.424Z,83.49
2023-01-29T08:10:55.120Z,84.11
2023-01-29T08:13:21.728Z,83.54
2023-01-29T08:15:48.373Z,83.23
2023-01-29T08:18:15.476Z,83.40
2023-01-29T08:20:42.258Z,84.22
2023-01-29T08:23:14.097Z,83.92
2023-01-29T08:25:40.876Z,82.99
2023-01-29T08:28:15.245Z,84.15
2023-01-29T08:30:44.063Z,83.74
2023-01-29T08:33:11.184Z,83.60
2023-01-29T08:35:38.045Z,83.47
2023-01-29T08:38:10.170Z,83.22
2023-01-29T08:40:38.040Z,83.88
2023-01-29T08:43:09.446Z,83.72
2023-01-29T08:48:39.262Z,82.50
2023-01-29T08:51:06.193Z,82.65
2023-01-29T08:53:32.977Z,82.38
2023-01-29T08:55:59.757Z,82.05
2023-01-29T08:58:26.418Z,82.12
2023-01-29T09:00:53.357Z,81.97
2023-01-29T09:03:20.703Z,81.65
2023-01-29T09:05:47.979Z,81.59
2023-01-29T09:08:15.478Z,81.91
2023-01-29T09:10:42.293Z,81.69
2023-01-29T09:13:08.970Z,81.26
2023-01-29T09:15:35.604Z,81.49
2023-01-29T09:18:05.669Z,81.49
2023-01-29T09:20:32.791Z,81.11
2023-01-29T09:23:05.048Z,81.33
2023-01-29T09:25:32.936Z,81.59
2023-01-29T09:27:59.537Z,81.43
2023-01-29T09:30:26.137Z,81.27
2023-01-29T09:32:56.172Z,80.82
2023-01-29T09:35:23.658Z,80.97
2023-01-29T09:37:51.087Z,80.87
2023-01-29T09:40:29.813Z,80.71
2023-01-29T09:43:03.102Z,80.41
2023-01-29T09:45:30.789Z,80.76
2023-01-29T09:48:03.527Z,80.49
2023-01-29T09:50:37.794Z,80.44
2023-01-29T09:53:25.715Z,80.23
2023-01-29T09:55:54.098Z,79.70
2023-01-29T09:58:32.497Z,79.80
2023-01-29T10:01:21.249Z,79.78
2023-01-29T10:04:17.178Z,79.60
2023-01-29T10:07:02.551Z,79.63
2023-01-29T10:09:44.721Z,79.42
2023-01-29T10:12:26.485Z,79.19
2023-01-29T10:15:21.078Z,79.39
2023-01-29T10:18:16.947Z,79.73
2023-01-29T10:20:56.487Z,79.10
2023-01-29T10:23:31.168Z,78.60
2023-01-29T10:25:59.291Z,79.59
2023-01-29T10:28:28.504Z,78.94
2023-01-29T10:31:00.442Z,79.30
2023-01-29T10:33:49.212Z,79.07
2023-01-29T10:36:26.244Z,78.43
2023-01-29T10:38:53.025Z,78.56
2023-01-29T10:41:47.118Z,78.11
2023-01-29T10:44:32.441Z,78.08
2023-01-29T10:47:13.588Z,78.49
2023-01-29T10:50:10.343Z,78.59
2023-01-29T10:53:05.019Z,78.50
2023-01-29T10:55:50.136Z,78.29
2023-01-29T10:58:22.799Z,78.37
2023-01-29T11:00:49.934Z,77.77
2023-01-29T11:03:27.897Z,77.40
2023-01-29T11:06:19.235Z,77.34
2023-01-29T11:09:10.960Z,77.66
2023-01-29T11:11:53.153Z,76.59
2023-01-29T11:14:25.344Z,76.39
2023-01-29T11:16:52.505Z,77.18
2023-01-29T11:19:37.007Z,76.90
2023-01-29T11:22:04.440Z,76.49
2023-01-29T11:24:31.243Z,76.91
2023-01-29T11:26:59.611Z,75.55
2023-01-29T11:29:40.446Z,76.27
2023-01-29T11:32:19.767Z,76.79
2023-01-29T11:35:16.034Z,76.97
2023-01-29T11:37:45.148Z,75.66
2023-01-29T11:40:24.172Z,76.05
2023-01-29T11:42:54.783Z,76.38
2023-01-29T11:45:28.027Z,76.39
2023-01-29T11:47:57.417Z,75.95
2023-01-29T11:50:32.330Z,75.97
2023-01-29T11:53:00.571Z,76.59
2023-01-29T11:55:48.206Z,76.46
2023-01-29T11:58:28.974Z,76.63
2023-01-29T12:00:57.354Z,76.10
2023-01-29T12:03:41.989Z,75.35
2023-01-29T12:06:19.928Z,75.76
2023-01-29T12:08:58.663Z,75.86
2023-01-29T12:11:29.577Z,75.93
2023-01-29T12:13:59.439Z,74.97
2023-01-29T12:16:53.904Z,75.35
2023-01-29T12:19:32.171Z,74.88
2023-01-29T12:22:21.638Z,75.92
2023-01-29T12:24:55.180Z,74.77
2023-01-29T12:27:27.762Z,75.55
2023-01-29T12:30:15.385Z,75.68
2023-01-29T12:32:59.036Z,75.26
2023-01-29T12:35:30.348Z,74.61
2023-01-29T12:38:27.266Z,75.92
2023-01-29T12:40:58.533Z,75.89
2023-01-29T12:43:38.931Z,75.89
2023-01-29T12:46:10.696Z,75.67
2023-01-29T12:48:39.838Z,75.35
2023-01-29T12:51:11.413Z,76.01
2023-01-29T12:53:43.648Z,75.56
2023-01-29T12:56:13.311Z,74.82
2023-01-29T12:58:48.521Z,74.98
2023-01-29T13:01:40.827Z,76.01
2023-01-29T13:04:16.692Z,75.94
2023-01-29T13:06:49.274Z,75.14
2023-01-29T13:09:21.364Z,75.83
2023-01-29T13:12:17.046Z,74.49
2023-01-29T13:14:50.542Z,75.41
2023-01-29T13:17:20.146Z,75.72
2023-01-29T13:19:51.019Z,74.89
2023-01-29T13:22:23.517Z,74.46
2023-01-29T13:25:03.620Z,75.22
2023-01-29T13:27:34.462Z,74.73
2023-01-29T13:30:01.552Z,75.18
2023-01-29T13:32:30.312Z,74.88
2023-01-29T13:35:00.232Z,75.17
2023-01-29T13:37:35.487Z,74.34
2023-01-29T13:40:05.619Z,74.05
2023-01-29T13:42:48.521Z,75.20
2023-01-29T13:45:35.182Z,75.48
2023-01-29T13:48:36.876Z,74.76
2023-01-29T13:51:04.869Z,75.35
2023-01-29T13:53:42.534Z,74.51
2023-01-29T13:56:34.331Z,75.30
2023-01-29T13:59:02.697Z,75.52
2023-01-29T14:01:47.954Z,75.30
2023-01-29T14:04:26.859Z,75.68
2023-01-29T14:06:55.211Z,75.71
2023-01-29T14:09:37.436Z,75.30
2023-01-29T14:12:08.725Z,75.74
2023-01-29T14:14:48.171Z,74.62
2023-01-29T14:17:19.947Z,75.26
2023-01-29T14:20:11.751Z,75.61
2023-01-29T14:22:38.297Z,75.49
2023-01-29T14:25:05.980Z,76.15
2023-01-29T14:27:34.385Z,76.06
2023-01-29T14:30:07.822Z,76.36
2023-01-29T14:32:35.027Z,76.39
2023-01-29T14:35:17.773Z,76.32
2023-01-29T14:37:48.115Z,76.10
2023-01-29T14:40:18.171Z,76.09
2023-01-29T14:42:58.932Z,76.58
2023-01-29T14:45:32.870Z,76.50
2023-01-29T14:48:05.711Z,76.75
2023-01-29T14:50:32.672Z,76.04
2023-01-29T14:53:05.261Z,76.44
2023-01-29T14:55:42.977Z,75.74
2023-01-29T14:58:15.332Z,76.53
2023-01-29T15:00:45.204Z,76.59
2023-01-29T15:03:28.123Z,75.21
2023-01-29T15:05:55.524Z,75.56
2023-01-29T15:08:38.228Z,75.11
2023-01-29T15:11:28.078Z,74.88
2023-01-29T15:14:13.697Z,74.98
2023-01-29T15:17:10.128Z,73.97
2023-01-29T15:19:40.259Z,74.47
2023-01-29T15:22:18.751Z,73.78
2023-01-29T15:24:47.276Z,73.80
2023-01-29T15:27:19.044Z,73.59
2023-01-29T15:29:57.243Z,74.08
2023-01-29T15:32:31.492Z,73.63
2023-01-29T15:34:59.127Z,74.67
2023-01-29T15:37:34.104Z,74.64
2023-01-29T15:40:01.699Z,73.73
2023-01-29T15:42:30.276Z,73.41
2023-01-29T15:44:57.229Z,74.33
2023-01-29T15:47:27.874Z,74.40
2023-01-29T15:49:55.146Z,74.90
2023-01-29T15:52:25.749Z,73.99
2023-01-29T15:54:52.976Z,74.03
2023-01-29T15:57:23.096Z,74.05
2023-01-29T15:59:52.063Z,74.74
2023-01-29T16:02:48.290Z,74.89
2023-01-29T16:05:19.469Z,74.32
2023-01-29T16:07:49.281Z,73.49
2023-01-29T16:10:24.338Z,73.41
2023-01-29T16:12:51.700Z,74.15
2023-01-29T16:15:29.761Z,74.21
2023-01-29T16:17:57.427Z,74.58
2023-01-29T16:20:44.766Z,74.27
2023-01-29T16:23:20.173Z,74.62
2023-01-29T16:25:47.930Z,74.15
2023-01-29T16:28:18.550Z,73.52
2023-01-29T16:30:45.470Z,73.41
2023-01-29T16:33:15.277Z,73.66
2023-01-29T16:35:42.171Z,73.76
2023-01-29T16:38:25.129Z,73.98
2023-01-29T16:41:24.349Z,73.49
2023-01-29T16:43:53.479Z,73.39
2023-01-29T16:47:00.748Z,74.15
2023-01-29T16:49:30.454Z,74.08
2023-01-29T16:52:20.441Z,73.77
2023-01-29T16:54:47.059Z,73.82
2023-01-29T16:57:25.223Z,73.65
2023-01-29T17:00:00.616Z,74.29
2023-01-29T17:02:33.587Z,73.68
2023-01-29T17:05:04.127Z,74.06
2023-01-29T17:07:32.486Z,74.28
2023-01-29T17:10:02.248Z,74.48
2023-01-29T17:12:30.638Z,74.27
2023-01-29T17:14:59.491Z,74.73
2023-01-29T17:17:34.789Z,74.51
2023-01-29T17:20:16.931Z,74.04
2023-01-29T17:22:44.801Z,75.28
2023-01-29T17:25:15.755Z,74.98
2023-01-29T17:27:45.195Z,74.16
2023-01-29T17:30:15.904Z,74.49
2023-01-29T17:32:44.580Z,75.21
2023-01-29T17:35:16.564Z,74.51
2023-01-29T17:37:44.358Z,74.10
2023-01-29T17:40:29.390Z,74.29
2023-01-29T17:42:55.990Z,74.10
2023-01-29T17:45:22.779Z,73.59
2023-01-29T17:47:49.392Z,74.25
2023-01-29T17:50:22.945Z,74.32
2023-01-29T17:52:50.301Z,74.13
2023-01-29T17:55:17.423Z,74.23
2023-01-29T17:57:44.478Z,74.28
2023-01-29T18:00:18.898Z,74.56
2023-01-29T18:02:45.580Z,73.88
2023-01-29T18:05:13.511Z,74.72
2023-01-29T18:07:41.644Z,73.66
2023-01-29T18:10:15.231Z,74.66
2023-01-29T18:12:41.911Z,74.56
2023-01-29T18:15:09.863Z,74.05
2023-01-29T18:17:37.589Z,74.89
2023-01-29T18:20:16.706Z,75.28
2023-01-29T18:22:43.373Z,74.90
2023-01-29T18:25:10.307Z,75.05
2023-01-29T18:27:37.981Z,75.55
2023-01-29T18:30:09.272Z,74.45
2023-01-29T18:32:36.189Z,74.39
2023-01-29T18:35:03.503Z,75.41
2023-01-29T18:37:30.194Z,74.91
2023-01-29T18:39:56.921Z,74.78
2023-01-29T18:42:23.868Z,74.51
2023-01-29T18:44:50.724Z,75.66
2023-01-29T18:47:19.759Z,74.78
2023-01-29T18:49:46.353Z,75.94
2023-01-29T18:52:13.585Z,75.70
2023-01-29T18:54:40.232Z,75.05
2023-01-29T18:57:14.352Z,75.51
2023-01-29T18:59:42.410Z,74.72
2023-01-29T19:02:14.763Z,75.55
2023-01-29T19:04:42.137Z,75.25
2023-01-29T19:07:13.707Z,75.80
2023-01-29T19:09:40.856Z,75.80
2023-01-29T19:12:07.717Z,76.27
2023-01-29T19:14:34.677Z,75.08
2023-01-29T19:17:01.701Z,75.10
2023-01-29T19:19:28.876Z,75.11
2023-01-29T19:21:55.581Z,75.11
2023-01-29T19:24:22.891Z,75.67
2023-01-29T19:26:49.569Z,75.52
2023-01-29T19:29:17.171Z,74.80
2023-01-29T19:31:44.202Z,75.72
2023-01-29T19:34:11.250Z,76.10
2023-01-29T19:36:38.080Z,75.90
2023-01-29T19:39:05.146Z,75.42
2023-01-29T19:41:32.479Z,75.65
2023-01-29T19:43:59.131Z,75.19
2023-01-29T19:46:25.747Z,76.12
2023-01-29T19:48:54.893Z,75.25
2023-01-29T19:51:23.283Z,76.11
2023-01-29T19:53:49.883Z,76.11
2023-01-29T19:56:17.930Z,76.22
2023-01-29T19:58:44.914Z,75.84
2023-01-29T20:01:20.260Z,76.73
2023-01-29T20:03:49.079Z,77.46
2023-01-29T20:06:18.287Z,78.22
2023-01-29T20:08:46.692Z,77.54
2023-01-29T20:11:14.890Z,78.34
2023-01-29T20:13:41.607Z,78.32
2023-01-29T20:16:08.825Z,78.20
2023-01-29T20:18:35.478Z,78.29
2023-01-29T20:21:13.258Z,78.15
2023-01-29T20:23:40.263Z,78.99
2023-01-29T20:26:15.496Z,78.13
2023-01-29T20:28:43.297Z,78.89
2023-01-29T20:31:10.517Z,78.62
2023-01-29T20:33:39.530Z,78.07
2023-01-29T20:36:09.448Z,78.46
2023-01-29T20:38:37.015Z,78.58
2023-01-29T20:41:15.007Z,78.36
2023-01-29T20:43:42.460Z,78.23
2023-01-29T20:46:09.551Z,79.17
2023-01-29T20:48:36.988Z,78.57
2023-01-29T20:51:06.687Z,78.76
2023-01-29T20:53:34.565Z,78.60
2023-01-29T20:56:04.103Z,79.36
2023-01-29T20:58:31.475Z,79.10
2023-01-29T21:00:58.218Z,79.01
2023-01-29T21:03:24.978Z,79.56
2023-01-29T21:05:52.239Z,78.77
2023-01-29T21:08:19.273Z,79.38
2023-01-29T21:10:46.018Z,79.55
2023-01-29T21:13:13.087Z,79.33
2023-01-29T21:15:41.937Z,79.68
2023-01-29T21:18:09.152Z,79.05
2023-01-29T21:20:37.055Z,79.60
2023-01-29T21:23:06.866Z,79.16
2023-01-29T21:25:33.861Z,79.63
2023-01-29T21:28:00.973Z,79.83
2023-01-29T21:30:27.738Z,79.83
2023-01-29T21:32:55.103Z,79.70
2023-01-29T21:35:22.097Z,79.40
2023-01-29T21:37:49.386Z,79.69
2023-01-29T21:40:16.824Z,79.37
2023-01-29T21:43:02.844Z,79.95
2023-01-29T21:45:31.061Z,80.35
2023-01-29T21:47:58.594Z,79.77
2023-01-29T21:50:25.392Z,80.31
2023-01-29T21:52:52.676Z,80.81
2023-01-29T21:55:19.362Z,80.15
2023-01-29T21:57:46.970Z,80.35
2023-01-29T22:00:14.020Z,80.66
2023-01-29T22:02:40.960Z,80.82
2023-01-29T22:05:18.592Z,80.62
2023-01-29T22:07:46.331Z,80.98
2023-01-29T22:10:13.195Z,81.31
2023-01-29T22:12:40.063Z,81.65
2023-01-29T22:15:07.757Z,81.48
2023-01-29T22:17:35.240Z,81.48
2023-01-29T22:20:02.194Z,81.53
2023-01-29T22:22:28.860Z,81.76
2023-01-29T22:24:57.639Z,82.26
2023-01-29T22:27:24.633Z,82.61
2023-01-29T22:29:51.489Z,82.71
2023-01-29T22:32:18.350Z,82.36
2023-01-29T22:34:44.957Z,82.47
2023-01-29T22:37:11.556Z,82.60
2023-01-29T22:39:38.171Z,82.82
2023-01-29T22:42:05.125Z,82.81
2023-01-29T22:44:31.805Z,82.73
2023-01-29T22:46:58.344Z,82.83
2023-01-29T22:49:25.739Z,82.67
2023-01-29T22:52:09.950Z,82.80
2023-01-29T22:54:41.343Z,83.20
2023-01-29T22:57:10.452Z,82.60
2023-01-29T22:59:37.435Z,82.74
2023-01-29T23:02:04.900Z,82.66
2023-01-29T23:04:31.609Z,83.44
2023-01-29T23:06:58.319Z,83.07
2023-01-29T23:09:24.947Z,83.12
2023-01-29T23:11:51.501Z,83.54
2023-01-29T23:14:18.186Z,83.52
2023-01-29T23:16:44.801Z,83.62
2023-01-29T23:19:12.174Z,83.29
2023-01-29T23:21:39.630Z,83.55
2023-01-29T23:24:07.307Z,83.54
2023-01-29T23:26:52.606Z,83.76
2023-01-29T23:29:19.337Z,83.31
2023-01-29T23:31:45.978Z,83.65
2023-01-29T23:34:13.625Z,83.76
2023-01-29T23:36:40.219Z,83.57
2023-01-29T23:39:06.961Z,83.45
2023-01-29T23:41:33.807Z,83.85
2023-01-29T23:44:00.458Z,83.81
2023-01-29T23:46:27.196Z,84.17
2023-01-29T23:48:53.819Z,84.24
2023-01-29T23:51:20.423Z,84.26
2023-01-29T23:53:47.093Z,84.05
2023-01-29T23:56:13.754Z,84.22
2023-01-29T23:58:40.354Z,83.90
